Time;durP1;ratioP1;P1;durP2;ratioP2;P2;SDS_P1;SDS_P2;PMS_P1;PMS_P2;Temp;Humidity;BMP_temperature;BMP_pressure;BME280_temperature;BME280_humidity;BME280_pressure;Samples;Min_cycle;Max_cycle;Signal;HPM_P1;HPM_P2
2024/01/18 00:01:35;;;;;;;4.32;2.25;;;1.60;99.90;;;;;;4859529;29;20070;-65
2024/01/18 00:04:01;;;;;;;3.25;2.05;;;1.60;99.90;;;;;;4857218;29;20033;-64
2024/01/18 00:06:28;;;;;;;2.72;2.33;;;1.60;99.90;;;;;;4859555;29;20562;-64
2024/01/18 00:08:54;;;;;;;6.63;2.28;;;1.50;99.90;;;;;;4859426;29;20479;-64
2024/01/18 00:11:19;;;;;;;2.40;2.20;;;1.50;99.90;;;;;;4851773;29;20041;-65
2024/01/18 00:13:45;;;;;;;4.38;2.28;;;1.50;99.90;;;;;;4859715;29;20079;-63
2024/01/18 00:16:11;;;;;;;4.50;2.88;;;1.60;99.90;;;;;;4853908;29;20546;-64
2024/01/18 00:18:37;;;;;;;7.70;3.60;;;1.60;99.90;;;;;;4859706;29;20081;-64
2024/01/18 00:21:03;;;;;;;3.67;2.88;;;1.60;99.90;;;;;;4851744;29;20076;-64
2024/01/18 00:23:29;;;;;;;5.68;3.25;;;1.60;99.90;;;;;;4858806;29;20054;-64
2024/01/18 00:25:55;;;;;;;4.65;2.72;;;1.60;99.90;;;;;;4851490;29;20045;-64
2024/01/18 00:28:21;;;;;;;5.15;2.33;;;1.60;99.90;;;;;;4857813;29;20029;-64
2024/01/18 00:30:46;;;;;;;4.07;2.63;;;1.60;99.90;;;;;;4859009;29;20034;-64
2024/01/18 00:33:12;;;;;;;3.85;2.58;;;1.60;99.90;;;;;;4859198;29;20037;-64
2024/01/18 00:35:38;;;;;;;3.35;2.05;;;1.60;99.90;;;;;;4853700;29;20045;-63
2024/01/18 00:38:04;;;;;;;7.03;4.03;;;1.50;99.90;;;;;;4858973;29;20033;-64
2024/01/18 00:40:29;;;;;;;7.43;3.85;;;1.50;99.90;;;;;;4853227;29;20045;-64
2024/01/18 00:42:55;;;;;;;8.25;3.85;;;1.50;99.90;;;;;;4858107;29;20097;-64
2024/01/18 00:45:21;;;;;;;7.85;4.45;;;1.50;99.90;;;;;;4857793;29;20171;-63
2024/01/18 00:47:47;;;;;;;6.82;5.25;;;1.50;99.90;;;;;;4855551;29;20586;-64
2024/01/18 00:50:13;;;;;;;8.30;4.80;;;1.40;99.90;;;;;;4859266;29;20534;-65
2024/01/18 00:52:39;;;;;;;6.13;4.00;;;1.40;99.90;;;;;;4856687;29;20140;-64
2024/01/18 00:55:06;;;;;;;6.25;3.67;;;1.40;99.90;;;;;;4872969;29;20169;-64
2024/01/18 00:57:33;;;;;;;8.88;5.05;;;1.40;99.90;;;;;;4857112;29;20038;-65
2024/01/18 00:59:59;;;;;;;8.60;4.13;;;1.40;99.90;;;;;;4858814;29;20184;-64
2024/01/18 01:02:25;;;;;;;12.43;5.18;;;1.40;99.90;;;;;;4857296;29;20037;-64
2024/01/18 01:04:51;;;;;;;6.68;4.00;;;1.40;99.90;;;;;;4872861;29;20493;-64
2024/01/18 01:07:17;;;;;;;5.53;3.78;;;1.40;99.90;;;;;;4856743;29;20042;-64
2024/01/18 01:09:42;;;;;;;7.30;4.03;;;1.40;99.90;;;;;;4873036;29;20022;-64
2024/01/18 01:12:11;;;;;;;5.88;4.15;;;1.40;99.90;;;;;;4857236;29;20089;-63
2024/01/18 01:14:37;;;;;;;10.90;6.68;;;1.40;99.90;;;;;;4853851;29;20042;-64
2024/01/18 01:17:03;;;;;;;8.05;4.88;;;1.40;99.90;;;;;;4857217;29;20041;-64
2024/01/18 01:19:28;;;;;;;10.77;4.90;;;1.40;99.90;;;;;;4859810;29;20169;-64
2024/01/18 01:21:54;;;;;;;4.90;3.53;;;1.40;99.90;;;;;;4859379;29;20072;-64
2024/01/18 01:24:20;;;;;;;9.63;4.78;;;1.30;99.90;;;;;;4859063;29;20033;-64
2024/01/18 01:26:45;;;;;;;7.07;4.45;;;1.30;99.90;;;;;;4859873;29;20040;-63
2024/01/18 01:29:11;;;;;;;7.10;4.05;;;1.30;99.90;;;;;;4873479;29;20033;-63
2024/01/18 01:31:37;;;;;;;5.97;3.45;;;1.30;99.90;;;;;;4858993;29;20033;-63
2024/01/18 01:34:03;;;;;;;9.82;5.22;;;1.30;99.90;;;;;;4855049;29;20097;-64
2024/01/18 01:36:28;;;;;;;9.80;4.70;;;1.20;99.90;;;;;;4862475;29;20090;-64
2024/01/18 01:38:54;;;;;;;6.25;4.78;;;1.30;99.90;;;;;;4856981;29;20153;-64
2024/01/18 01:41:20;;;;;;;5.15;4.55;;;1.30;99.90;;;;;;4862211;29;20423;-64
2024/01/18 01:44:02;;;;;;;10.45;3.38;;;1.30;99.90;;;;;;4841181;29;20042;-64
2024/01/18 01:46:28;;;;;;;5.93;4.72;;;1.30;99.90;;;;;;4861972;29;20032;-64
2024/01/18 01:49:03;;;;;;;9.02;4.82;;;1.30;99.90;;;;;;4856720;29;20049;-64
2024/01/18 01:51:43;;;;;;;7.82;4.43;;;1.30;99.90;;;;;;4860560;29;20041;-64
2024/01/18 01:54:10;;;;;;;6.57;3.13;;;1.30;99.90;;;;;;4855559;29;20494;-64
2024/01/18 01:56:38;;;;;;;5.40;3.92;;;1.30;99.90;;;;;;4860334;29;20106;-64
2024/01/18 01:59:09;;;;;;;7.50;3.65;;;1.20;99.90;;;;;;4861300;29;20195;-64
2024/01/18 02:01:36;;;;;;;7.15;4.53;;;1.30;99.90;;;;;;4860163;29;20494;-64
2024/01/18 02:04:02;;;;;;;7.07;4.03;;;1.30;99.90;;;;;;4856004;29;20046;-65
2024/01/18 02:06:30;;;;;;;5.53;3.78;;;1.30;99.90;;;;;;4860683;29;20105;-64
2024/01/18 02:08:56;;;;;;;10.32;4.75;;;1.30;99.90;;;;;;4861068;29;20025;-63
2024/01/18 02:11:22;;;;;;;9.43;4.03;;;1.30;99.90;;;;;;4844790;29;20672;-63
2024/01/18 02:13:49;;;;;;;6.53;3.67;;;1.30;99.90;;;;;;4855436;29;20041;-65
2024/01/18 02:16:15;;;;;;;10.68;4.63;;;1.20;99.90;;;;;;4860095;29;20053;-64
2024/01/18 02:18:40;;;;;;;8.57;5.03;;;1.20;99.90;;;;;;4860851;29;20049;-63
2024/01/18 02:21:08;;;;;;;7.05;5.20;;;1.20;99.90;;;;;;4861311;29;20033;-63
2024/01/18 02:23:37;;;;;;;5.03;3.45;;;1.20;99.90;;;;;;4855456;29;20029;-64
2024/01/18 02:26:03;;;;;;;6.93;3.78;;;1.20;99.90;;;;;;4859718;29;20081;-63
2024/01/18 02:28:29;;;;;;;8.75;4.57;;;1.20;99.90;;;;;;4860736;29;20076;-64
2024/01/18 02:30:55;;;;;;;6.93;4.20;;;1.20;99.90;;;;;;4875161;29;20033;-63
2024/01/18 02:33:21;;;;;;;6.43;3.40;;;1.20;99.90;;;;;;4860451;29;20665;-64
2024/01/18 02:35:46;;;;;;;7.40;3.83;;;1.10;99.90;;;;;;4861108;29;20053;-64
2024/01/18 02:38:12;;;;;;;6.45;3.67;;;1.10;99.90;;;;;;4860104;29;20183;-64
2024/01/18 02:40:42;;;;;;;8.25;3.60;;;1.10;99.90;;;;;;4859764;29;20029;-64
2024/01/18 02:43:08;;;;;;;9.77;4.05;;;1.10;99.90;;;;;;4855215;29;20045;-64
2024/01/18 02:45:36;;;;;;;6.43;3.95;;;1.10;99.90;;;;;;4858423;29;20440;-64
2024/01/18 02:48:03;;;;;;;4.43;2.78;;;1.10;99.90;;;;;;4857208;29;20077;-64
2024/01/18 02:50:28;;;;;;;7.68;3.58;;;1.10;99.90;;;;;;4858030;29;20041;-64
2024/01/18 02:52:54;;;;;;;8.48;4.63;;;1.10;99.90;;;;;;4861375;29;20086;-64
2024/01/18 02:55:20;;;;;;;11.70;5.03;;;1.10;99.90;;;;;;4852762;29;20475;-64
2024/01/18 02:57:45;;;;;;;5.97;3.17;;;1.10;99.90;;;;;;4872620;29;20521;-64
2024/01/18 03:00:12;;;;;;;6.80;3.28;;;1.10;99.90;;;;;;4872018;29;20057;-64
2024/01/18 03:02:38;;;;;;;8.63;4.75;;;1.10;99.90;;;;;;4860457;29;20033;-65
2024/01/18 03:05:05;;;;;;;5.60;3.15;;;1.10;99.90;;;;;;4858338;29;20406;-64
2024/01/18 03:07:31;;;;;;;7.95;4.75;;;1.00;99.90;;;;;;4874580;29;20034;-64
2024/01/18 03:09:57;;;;;;;5.75;4.13;;;1.10;99.90;;;;;;4860034;29;20127;-64
2024/01/18 03:12:23;;;;;;;7.32;3.53;;;1.10;99.90;;;;;;4858874;29;20116;-64
2024/01/18 03:14:48;;;;;;;7.72;2.90;;;1.00;99.90;;;;;;4860340;29;20033;-64
2024/01/18 03:17:14;;;;;;;10.15;4.45;;;1.00;99.90;;;;;;4860022;29;20033;-63
2024/01/18 03:19:40;;;;;;;6.18;3.67;;;1.00;99.90;;;;;;4859645;29;20469;-63
2024/01/18 03:22:05;;;;;;;15.80;4.60;;;1.00;99.90;;;;;;4873739;29;20044;-62
2024/01/18 03:24:31;;;;;;;5.45;2.90;;;1.00;99.90;;;;;;4858876;29;20033;-63
2024/01/18 03:26:57;;;;;;;5.78;3.30;;;1.00;99.90;;;;;;4859559;29;20390;-64
2024/01/18 03:29:22;;;;;;;10.88;3.20;;;1.00;99.90;;;;;;4858850;29;20129;-64
2024/01/18 03:31:48;;;;;;;7.72;4.32;;;1.00;99.90;;;;;;4859584;29;20041;-64
2024/01/18 03:34:14;;;;;;;7.30;4.18;;;1.00;99.90;;;;;;4859292;29;20044;-64
2024/01/18 03:36:40;;;;;;;8.07;3.95;;;0.90;99.90;;;;;;4874011;29;20037;-64
2024/01/18 03:39:09;;;;;;;6.35;4.47;;;1.00;99.90;;;;;;4860017;29;20033;-64
2024/01/18 03:41:34;;;;;;;4.05;2.42;;;1.00;99.90;;;;;;4873689;29;20033;-64
2024/01/18 03:44:00;;;;;;;6.97;5.00;;;1.00;99.90;;;;;;4858817;29;20037;-64
2024/01/18 03:46:26;;;;;;;5.88;3.38;;;1.00;99.90;;;;;;4859697;29;20382;-64
2024/01/18 03:48:51;;;;;;;6.38;3.20;;;0.90;99.90;;;;;;4861003;29;20044;-64
2024/01/18 03:51:17;;;;;;;6.38;4.03;;;1.00;99.90;;;;;;4858931;29;20406;-64
2024/01/18 03:53:43;;;;;;;6.28;4.13;;;0.90;99.90;;;;;;4874976;29;20121;-64
2024/01/18 03:56:12;;;;;;;7.53;4.72;;;0.90;99.90;;;;;;4841487;29;20037;-64
2024/01/18 03:58:41;;;;;;;5.68;4.22;;;0.90;99.90;;;;;;4859333;29;20041;-64
2024/01/18 04:01:07;;;;;;;4.28;2.85;;;0.90;99.90;;;;;;4857065;29;20041;-65
2024/01/18 04:03:32;;;;;;;9.48;4.65;;;0.90;99.90;;;;;;4857918;29;20044;-64
2024/01/18 04:05:58;;;;;;;4.47;2.65;;;0.90;99.90;;;;;;4871090;29;20046;-64
2024/01/18 04:08:24;;;;;;;7.75;3.65;;;0.90;99.90;;;;;;4859635;29;20052;-64
2024/01/18 04:10:50;;;;;;;4.53;3.22;;;0.80;99.90;;;;;;4858159;29;20162;-64
2024/01/18 04:13:15;;;;;;;12.15;4.43;;;0.80;99.90;;;;;;4842572;29;20073;-64
2024/01/18 04:15:41;;;;;;;8.15;4.93;;;0.80;99.90;;;;;;4858814;29;20045;-64
2024/01/18 04:18:07;;;;;;;4.80;3.58;;;0.80;99.90;;;;;;4858864;29;20120;-64
2024/01/18 04:20:32;;;;;;;5.35;2.88;;;0.80;99.90;;;;;;4857724;29;20044;-65
2024/01/18 04:22:59;;;;;;;8.07;4.50;;;0.80;99.90;;;;;;4858207;29;20037;-64
2024/01/18 04:25:24;;;;;;;4.25;3.08;;;0.80;99.90;;;;;;4856285;29;20125;-64
2024/01/18 04:27:50;;;;;;;5.80;3.92;;;0.80;99.90;;;;;;4873364;29;20165;-64
2024/01/18 04:30:16;;;;;;;9.20;4.10;;;0.80;99.90;;;;;;4857306;29;20037;-64
2024/01/18 04:32:41;;;;;;;8.90;4.68;;;0.90;99.90;;;;;;4857608;29;20033;-64
2024/01/18 04:35:08;;;;;;;5.80;3.50;;;0.90;99.90;;;;;;4857970;29;20038;-64
2024/01/18 04:37:33;;;;;;;4.95;3.67;;;0.80;99.90;;;;;;4873371;29;20128;-65
2024/01/18 04:39:59;;;;;;;6.43;4.18;;;0.80;99.90;;;;;;4856286;29;20113;-65
2024/01/18 04:42:26;;;;;;;5.03;3.35;;;0.80;99.90;;;;;;4858614;29;20037;-64
2024/01/18 04:44:51;;;;;;;2.60;2.35;;;0.80;99.90;;;;;;4857040;29;20041;-65
2024/01/18 04:47:17;;;;;;;6.57;3.78;;;0.80;99.90;;;;;;4872959;29;20029;-65
2024/01/18 04:49:43;;;;;;;5.03;3.60;;;0.80;99.90;;;;;;4857083;29;20076;-64
2024/01/18 04:52:10;;;;;;;4.65;3.72;;;0.80;99.90;;;;;;4858286;29;20052;-64
2024/01/18 04:54:35;;;;;;;6.40;4.18;;;0.80;99.90;;;;;;4856228;29;20128;-64
2024/01/18 04:57:02;;;;;;;3.88;3.30;;;0.80;99.90;;;;;;4858578;29;20124;-64
2024/01/18 04:59:27;;;;;;;8.15;5.32;;;0.80;99.90;;;;;;4856827;29;20037;-64
2024/01/18 05:01:54;;;;;;;5.65;3.45;;;0.80;99.90;;;;;;4857576;29;20136;-64
2024/01/18 05:04:20;;;;;;;5.22;3.55;;;0.80;99.90;;;;;;4856087;29;20110;-65
2024/01/18 05:06:46;;;;;;;8.10;2.90;;;0.90;99.90;;;;;;4858653;29;20428;-63
2024/01/18 05:09:16;;;;;;;10.05;4.28;;;0.90;99.90;;;;;;4856268;29;20562;-63
2024/01/18 05:11:42;;;;;;;5.57;3.25;;;0.90;99.90;;;;;;4862080;29;20081;-63
2024/01/18 05:14:09;;;;;;;8.93;3.97;;;0.80;99.90;;;;;;4861617;29;20422;-63
2024/01/18 05:16:39;;;;;;;6.07;3.22;;;0.80;99.90;;;;;;4862590;29;20033;-64
2024/01/18 05:19:08;;;;;;;4.75;2.70;;;0.80;99.90;;;;;;4858216;29;20120;-64
2024/01/18 05:21:34;;;;;;;4.80;2.60;;;0.80;99.90;;;;;;4861409;29;20128;-63
2024/01/18 05:23:59;;;;;;;4.65;3.08;;;0.80;99.90;;;;;;4860049;29;20144;-64
2024/01/18 05:26:25;;;;;;;3.88;2.88;;;0.80;99.90;;;;;;4862172;29;20037;-64
2024/01/18 05:28:51;;;;;;;12.10;3.58;;;0.80;99.90;;;;;;4861880;29;20097;-64
2024/01/18 05:31:19;;;;;;;2.80;2.45;;;0.80;99.90;;;;;;4860990;29;20033;-64
2024/01/18 05:33:45;;;;;;;8.25;3.08;;;0.80;99.90;;;;;;4856964;29;20037;-64
2024/01/18 05:36:11;;;;;;;5.63;3.50;;;0.90;99.90;;;;;;4861644;29;20439;-64
2024/01/18 05:38:36;;;;;;;6.97;4.18;;;0.90;99.90;;;;;;4861923;29;20076;-63
2024/01/18 05:41:05;;;;;;;3.70;2.45;;;0.90;99.90;;;;;;4861960;29;20057;-64
2024/01/18 05:43:31;;;;;;;4.70;2.60;;;0.90;99.90;;;;;;4863380;29;20735;-64
2024/01/18 05:45:57;;;;;;;9.98;4.88;;;0.90;99.90;;;;;;4855229;29;20033;-64
2024/01/18 05:48:23;;;;;;;8.63;3.90;;;0.80;99.90;;;;;;4862017;29;20025;-65
2024/01/18 05:50:48;;;;;;;4.22;3.15;;;0.80;99.90;;;;;;4862885;29;20039;-65
2024/01/18 05:53:16;;;;;;;8.10;3.53;;;0.80;99.90;;;;;;4877549;29;20526;-65
2024/01/18 05:55:42;;;;;;;4.10;2.78;;;0.80;99.90;;;;;;4864714;29;20045;-65
2024/01/18 05:58:08;;;;;;;3.58;2.67;;;0.70;99.90;;;;;;4878374;29;20021;-66
2024/01/18 06:00:33;;;;;;;9.75;4.07;;;0.70;99.90;;;;;;4863638;29;20387;-66
2024/01/18 06:02:59;;;;;;;3.78;2.75;;;0.70;99.90;;;;;;4879056;29;20109;-66
2024/01/18 06:05:26;;;;;;;6.55;4.25;;;0.70;99.90;;;;;;4863060;29;20039;-67
2024/01/18 06:07:52;;;;;;;5.10;3.17;;;0.60;99.90;;;;;;4877132;29;20061;-68
2024/01/18 06:10:18;;;;;;;4.18;2.63;;;0.60;99.90;;;;;;4877173;29;20037;-66
2024/01/18 06:12:44;;;;;;;6.65;3.70;;;0.60;99.90;;;;;;4844173;29;20490;-67
2024/01/18 06:15:10;;;;;;;6.82;4.10;;;0.70;99.90;;;;;;4860413;29;20109;-67
2024/01/18 06:17:36;;;;;;;11.27;4.88;;;0.60;99.90;;;;;;4875393;29;20513;-67
2024/01/18 06:20:02;;;;;;;3.33;2.55;;;0.70;99.90;;;;;;4861624;29;20041;-67
2024/01/18 06:22:28;;;;;;;3.65;2.65;;;0.60;99.90;;;;;;4859128;29;20033;-67
2024/01/18 06:24:54;;;;;;;5.43;3.22;;;0.60;99.90;;;;;;4861138;29;20543;-66
2024/01/18 06:27:20;;;;;;;5.22;3.95;;;0.60;99.90;;;;;;4858839;29;20049;-67
2024/01/18 06:29:47;;;;;;;6.93;4.32;;;0.60;99.90;;;;;;4860091;29;20043;-67
2024/01/18 06:32:13;;;;;;;4.45;2.17;;;0.60;99.90;;;;;;4858806;29;20045;-67
2024/01/18 06:34:39;;;;;;;8.73;4.10;;;0.60;99.90;;;;;;4859674;29;20487;-69
2024/01/18 06:37:05;;;;;;;7.53;3.08;;;0.60;99.90;;;;;;4857343;29;20097;-67
2024/01/18 06:39:30;;;;;;;5.90;3.08;;;0.50;99.90;;;;;;4859658;29;20033;-67
2024/01/18 06:41:56;;;;;;;11.70;4.15;;;0.60;99.90;;;;;;4859837;29;20057;-66
2024/01/18 06:44:22;;;;;;;5.05;4.05;;;0.60;99.90;;;;;;4860110;29;20029;-67
2024/01/18 06:46:48;;;;;;;3.97;2.53;;;0.50;99.90;;;;;;4856902;29;20038;-66
2024/01/18 06:49:14;;;;;;;3.80;2.90;;;0.50;99.90;;;;;;4860617;29;20041;-67
2024/01/18 06:51:40;;;;;;;6.57;3.38;;;0.50;99.90;;;;;;4860102;29;20081;-66
2024/01/18 06:54:06;;;;;;;7.75;4.05;;;0.40;99.90;;;;;;4858146;29;20034;-67
2024/01/18 06:56:31;;;;;;;3.72;2.72;;;0.40;99.90;;;;;;4870174;29;20399;-67
2024/01/18 06:58:57;;;;;;;4.68;1.98;;;0.40;99.90;;;;;;4861626;29;20033;-66
2024/01/18 07:01:23;;;;;;;7.22;3.40;;;0.30;99.90;;;;;;4861722;29;20439;-67
2024/01/18 07:03:49;;;;;;;4.47;3.50;;;0.30;99.90;;;;;;4861420;29;20030;-66
2024/01/18 07:06:15;;;;;;;4.82;2.92;;;0.20;99.90;;;;;;4861619;29;20029;-66
2024/01/18 07:08:40;;;;;;;5.22;3.67;;;0.30;99.90;;;;;;4861146;29;20030;-66
2024/01/18 07:11:06;;;;;;;6.05;3.17;;;0.30;99.90;;;;;;4860365;29;20026;-67
2024/01/18 07:13:32;;;;;;;9.82;3.60;;;0.20;99.90;;;;;;4859928;29;20034;-66
2024/01/18 07:15:58;;;;;;;6.43;3.28;;;0.20;99.90;;;;;;4859923;29;20033;-66
2024/01/18 07:18:23;;;;;;;5.78;3.00;;;0.20;99.90;;;;;;4860026;29;20060;-66
2024/01/18 07:20:49;;;;;;;3.80;2.33;;;0.20;99.90;;;;;;4860356;29;20025;-66
2024/01/18 07:23:15;;;;;;;4.82;2.70;;;0.20;99.90;;;;;;4854804;29;20112;-67
2024/01/18 07:25:41;;;;;;;17.95;4.38;;;0.10;99.90;;;;;;4875341;29;20037;-66
2024/01/18 07:28:08;;;;;;;4.10;2.75;;;0.10;99.90;;;;;;4861453;29;20037;-67
2024/01/18 07:30:39;;;;;;;7.22;3.53;;;0.10;99.90;;;;;;4864307;29;20049;-67
2024/01/18 07:33:05;;;;;;;4.88;3.58;;;0.10;99.90;;;;;;4859096;29;20029;-67
2024/01/18 07:35:31;;;;;;;5.20;2.95;;;0.10;99.90;;;;;;4859775;29;20650;-67
2024/01/18 07:37:58;;;;;;;5.45;3.50;;;0.10;99.90;;;;;;4859591;29;20033;-67
2024/01/18 07:40:24;;;;;;;5.93;3.80;;;0.10;99.90;;;;;;4859933;29;20035;-67
2024/01/18 07:42:50;;;;;;;11.00;4.53;;;0.10;99.90;;;;;;4871212;29;20025;-66
2024/01/18 07:45:16;;;;;;;6.38;2.67;;;0.10;99.90;;;;;;4861550;29;20097;-67
2024/01/18 07:47:45;;;;;;;5.13;3.35;;;0.10;99.90;;;;;;4859392;29;20033;-67
2024/01/18 07:50:12;;;;;;;8.45;2.60;;;0.10;99.90;;;;;;4872969;29;20033;-68
2024/01/18 07:52:38;;;;;;;8.30;3.53;;;0.10;99.90;;;;;;4855520;29;20140;-68
2024/01/18 07:55:06;;;;;;;6.78;2.78;;;0.20;99.90;;;;;;4859030;29;20068;-66
2024/01/18 07:57:34;;;;;;;6.72;3.25;;;0.60;99.90;;;;;;4856521;29;20101;-66
2024/01/18 08:00:00;;;;;;;6.90;3.80;;;0.50;99.90;;;;;;4859089;29;20029;-66
2024/01/18 08:02:26;;;;;;;5.45;3.78;;;0.30;99.90;;;;;;4852886;29;20068;-66
2024/01/18 08:04:52;;;;;;;5.60;3.70;;;0.30;99.90;;;;;;4857148;29;20038;-67
2024/01/18 08:07:18;;;;;;;5.32;3.47;;;0.20;99.90;;;;;;4854386;29;20041;-67
2024/01/18 08:09:44;;;;;;;7.95;4.50;;;0.20;99.90;;;;;;4854301;29;20029;-67
2024/01/18 08:12:09;;;;;;;3.25;2.35;;;0.00;99.90;;;;;;4870718;29;20052;-67
2024/01/18 08:14:43;;;;;;;4.03;3.35;;;0.00;99.90;;;;;;4859211;29;20701;-67
2024/01/18 08:17:09;;;;;;;3.35;2.25;;;0.00;99.90;;;;;;4860042;29;20026;-66
2024/01/18 08:19:36;;;;;;;4.32;2.65;;;0.00;99.90;;;;;;4862922;29;20245;-66
2024/01/18 08:22:02;;;;;;;3.42;2.65;;;0.00;99.90;;;;;;4855723;29;20029;-66
2024/01/18 08:24:28;;;;;;;4.20;2.22;;;-0.10;99.90;;;;;;4862137;29;20027;-66
2024/01/18 08:26:54;;;;;;;7.05;3.47;;;0.00;99.90;;;;;;4863200;29;20143;-66
2024/01/18 08:29:19;;;;;;;3.08;1.50;;;-0.10;99.90;;;;;;4858559;29;20757;-66
2024/01/18 08:31:45;;;;;;;4.18;2.33;;;-0.10;99.90;;;;;;4870578;29;20094;-66
2024/01/18 08:34:12;;;;;;;6.30;2.30;;;-0.10;99.90;;;;;;4861657;29;20742;-66
2024/01/18 08:36:37;;;;;;;2.58;1.92;;;-0.10;99.90;;;;;;4867837;29;20048;-66
2024/01/18 08:39:03;;;;;;;4.40;3.00;;;-0.10;99.90;;;;;;4859995;29;20499;-66
2024/01/18 08:41:29;;;;;;;5.10;2.88;;;-0.10;99.90;;;;;;4867824;29;20033;-65
2024/01/18 08:43:55;;;;;;;3.30;2.10;;;-0.20;99.90;;;;;;4872491;29;20052;-66
2024/01/18 08:46:20;;;;;;;2.90;2.17;;;-0.10;99.90;;;;;;4885156;29;20037;-66
2024/01/18 08:48:46;;;;;;;5.80;3.20;;;-0.20;99.90;;;;;;4871194;29;20045;-66
2024/01/18 08:51:15;;;;;;;3.55;1.85;;;-0.20;99.90;;;;;;4885200;29;20089;-66
2024/01/18 08:53:41;;;;;;;4.65;2.83;;;-0.20;99.90;;;;;;4871488;29;20090;-66
2024/01/18 08:56:09;;;;;;;6.03;3.15;;;-0.20;99.90;;;;;;4866705;29;20037;-66
2024/01/18 08:58:39;;;;;;;6.30;4.50;;;-0.20;99.90;;;;;;4860353;29;20061;-66
2024/01/18 09:01:05;;;;;;;3.05;2.28;;;-0.20;99.90;;;;;;4866291;29;20048;-66
2024/01/18 09:03:31;;;;;;;2.42;2.13;;;-0.30;99.90;;;;;;4863362;29;20040;-66
2024/01/18 09:05:57;;;;;;;5.28;3.15;;;-0.30;99.90;;;;;;4870025;29;20033;-66
2024/01/18 09:08:22;;;;;;;2.72;2.47;;;-0.30;99.90;;;;;;4856071;29;20109;-66
2024/01/18 09:10:49;;;;;;;7.35;3.53;;;-0.20;99.90;;;;;;4883405;29;20521;-66
2024/01/18 09:13:15;;;;;;;5.47;2.83;;;-0.30;99.90;;;;;;4863776;29;20045;-66
2024/01/18 09:15:41;;;;;;;3.70;2.92;;;-0.30;99.90;;;;;;4866636;29;20025;-66
2024/01/18 09:18:08;;;;;;;3.70;2.13;;;-0.40;99.90;;;;;;4862074;29;20115;-66
2024/01/18 09:20:34;;;;;;;5.35;3.17;;;-0.40;99.90;;;;;;4861521;29;20021;-66
2024/01/18 09:22:59;;;;;;;5.85;3.08;;;-0.40;99.90;;;;;;4862667;29;20064;-66
2024/01/18 09:25:25;;;;;;;2.83;2.10;;;-0.40;99.90;;;;;;4864376;29;20030;-66
2024/01/18 09:27:51;;;;;;;3.28;2.33;;;-0.40;99.90;;;;;;4863936;29;20048;-66
2024/01/18 09:30:17;;;;;;;3.05;2.15;;;-0.40;99.90;;;;;;4866854;29;20029;-66
2024/01/18 09:32:43;;;;;;;5.55;3.40;;;-0.40;99.90;;;;;;4865185;29;20033;-66
2024/01/18 09:35:09;;;;;;;4.15;2.78;;;-0.40;99.90;;;;;;4862785;29;20033;-66
2024/01/18 09:37:35;;;;;;;4.35;1.73;;;-0.40;99.90;;;;;;4878795;29;20037;-67
2024/01/18 09:40:03;;;;;;;4.80;2.55;;;-0.40;99.90;;;;;;4863162;29;20069;-65
2024/01/18 09:42:33;;;;;;;3.78;2.35;;;-0.40;99.90;;;;;;4874266;29;20519;-67
2024/01/18 09:45:09;;;;;;;6.03;3.30;;;-0.40;99.90;;;;;;4875954;29;20029;-66
2024/01/18 09:47:35;;;;;;;3.30;2.53;;;-0.40;99.90;;;;;;4873163;29;20029;-65
2024/01/18 09:50:01;;;;;;;3.70;3.05;;;-0.50;99.90;;;;;;4861619;29;20131;-65
2024/01/18 09:52:27;;;;;;;4.75;2.50;;;-0.40;99.90;;;;;;4867651;29;20030;-65
2024/01/18 09:54:52;;;;;;;7.28;4.15;;;-0.40;99.90;;;;;;4862772;29;20054;-65
2024/01/18 09:57:30;;;;;;;6.63;4.22;;;-0.40;99.90;;;;;;4866497;29;20026;-65
2024/01/18 09:59:59;;;;;;;5.68;3.70;;;-0.40;99.90;;;;;;4861993;29;20093;-65
2024/01/18 10:02:26;;;;;;;5.68;2.83;;;-0.30;99.90;;;;;;4870061;29;20038;-67
2024/01/18 10:05:02;;;;;;;11.00;4.03;;;-0.30;99.90;;;;;;4865049;29;20166;-66
2024/01/18 10:07:28;;;;;;;5.60;4.03;;;-0.30;99.90;;;;;;4868549;29;20034;-66
2024/01/18 10:09:54;;;;;;;6.38;3.38;;;-0.30;99.90;;;;;;4864806;29;20017;-66
2024/01/18 10:12:20;;;;;;;4.57;3.20;;;-0.30;99.90;;;;;;4875470;29;20112;-66
2024/01/18 10:14:46;;;;;;;4.90;3.25;;;-0.30;99.90;;;;;;4882110;29;20620;-66
2024/01/18 10:17:23;;;;;;;6.60;3.67;;;-0.40;99.90;;;;;;4874223;29;20069;-66
2024/01/18 10:19:56;;;;;;;8.52;3.42;;;-0.30;99.90;;;;;;4881056;29;20121;-66
2024/01/18 10:22:22;;;;;;;8.10;3.17;;;-0.30;99.90;;;;;;4871486;29;20064;-66
2024/01/18 10:24:49;;;;;;;6.78;3.25;;;-0.20;99.90;;;;;;4871422;29;20064;-66
2024/01/18 10:27:19;;;;;;;10.13;2.70;;;-0.30;99.90;;;;;;4859896;29;21225;-66
2024/01/18 10:29:44;;;;;;;5.35;2.50;;;-0.20;99.90;;;;;;4857340;29;20157;-66
2024/01/18 10:32:10;;;;;;;8.60;4.22;;;-0.20;99.90;;;;;;4859107;29;20104;-66
2024/01/18 10:34:37;;;;;;;11.57;3.30;;;-0.20;99.90;;;;;;4861698;29;20033;-66
2024/01/18 10:37:08;;;;;;;7.22;3.15;;;-0.20;99.90;;;;;;4859589;29;20030;-65
2024/01/18 10:39:41;;;;;;;7.50;3.70;;;-0.10;99.90;;;;;;4860703;29;20045;-66
2024/01/18 10:42:09;;;;;;;7.43;4.00;;;-0.10;99.90;;;;;;4876882;29;20067;-65
2024/01/18 10:44:53;;;;;;;3.55;3.25;;;-0.10;99.90;;;;;;4861769;29;20026;-65
2024/01/18 10:47:18;;;;;;;9.65;3.50;;;0.10;99.90;;;;;;4859717;29;20036;-65
2024/01/18 10:49:45;;;;;;;6.65;3.35;;;0.10;99.90;;;;;;4873283;29;20041;-66
2024/01/18 10:52:11;;;;;;;7.80;2.85;;;0.10;99.90;;;;;;4854146;29;20491;-65
2024/01/18 10:54:37;;;;;;;4.63;3.00;;;0.20;99.90;;;;;;4871872;29;20032;-65
2024/01/18 10:57:04;;;;;;;10.18;3.28;;;0.20;99.90;;;;;;4851461;29;20051;-66
2024/01/18 10:59:31;;;;;;;5.10;3.03;;;0.20;99.90;;;;;;4873429;29;20030;-65
2024/01/18 11:02:01;;;;;;;7.18;3.80;;;0.30;99.90;;;;;;4853724;29;20037;-66
2024/01/18 11:04:30;;;;;;;4.73;2.47;;;0.30;99.90;;;;;;4857730;29;20513;-65
2024/01/18 11:06:58;;;;;;;5.28;2.40;;;0.40;99.90;;;;;;4855656;29;20294;-65
2024/01/18 11:09:27;;;;;;;4.47;2.53;;;0.50;99.90;;;;;;4857605;29;20040;-65
2024/01/18 11:11:56;;;;;;;7.20;3.50;;;0.40;99.90;;;;;;4857142;29;20045;-65
2024/01/18 11:14:22;;;;;;;9.48;4.53;;;0.50;99.90;;;;;;4857455;29;20048;-65
2024/01/18 11:16:48;;;;;;;12.32;2.88;;;0.50;99.90;;;;;;4859784;29;20683;-67
2024/01/18 11:19:46;;;;;;;4.78;2.40;;;0.60;99.90;;;;;;4860114;29;20045;-67
2024/01/18 11:22:26;;;;;;;10.40;4.45;;;0.60;99.90;;;;;;4859826;29;20045;-67
2024/01/18 11:24:53;;;;;;;5.10;3.63;;;0.60;99.90;;;;;;4874726;29;20491;-66
2024/01/18 11:27:25;;;;;;;6.32;4.25;;;0.60;99.90;;;;;;4858651;29;20064;-65
2024/01/18 11:29:51;;;;;;;5.13;3.72;;;0.70;99.90;;;;;;4860357;29;20044;-65
2024/01/18 11:32:21;;;;;;;13.15;4.88;;;0.60;99.90;;;;;;4858287;29;20025;-64
2024/01/18 11:34:49;;;;;;;20.95;3.47;;;0.70;99.90;;;;;;4860338;29;20104;-65
2024/01/18 11:37:16;;;;;;;11.25;3.70;;;0.70;99.90;;;;;;4859632;29;20347;-64
2024/01/18 11:39:47;;;;;;;9.00;3.50;;;0.70;99.90;;;;;;4859402;29;20034;-65
2024/01/18 11:42:30;;;;;;;6.35;4.53;;;0.70;99.90;;;;;;4857415;29;20042;-65
2024/01/18 11:44:58;;;;;;;8.30;5.00;;;0.70;99.90;;;;;;4870467;29;20154;-65
2024/01/18 11:47:28;;;;;;;5.88;3.78;;;0.80;99.90;;;;;;4859308;29;20391;-64
2024/01/18 11:49:55;;;;;;;9.05;5.07;;;0.80;99.90;;;;;;4872805;29;20479;-65
2024/01/18 11:52:22;;;;;;;8.40;3.63;;;0.80;99.90;;;;;;4858772;29;20143;-67
2024/01/18 11:54:52;;;;;;;7.78;4.78;;;0.90;99.90;;;;;;4874232;29;20065;-67
2024/01/18 11:57:19;;;;;;;4.65;3.22;;;0.80;99.90;;;;;;4857469;29;20029;-65
2024/01/18 11:59:47;;;;;;;4.53;3.65;;;0.80;99.90;;;;;;4857985;29;20042;-65
2024/01/18 12:02:14;;;;;;;8.95;5.10;;;0.90;99.90;;;;;;4857564;29;20446;-65
2024/01/18 12:04:40;;;;;;;7.72;4.55;;;0.90;99.90;;;;;;4874214;29;20042;-65
2024/01/18 12:07:08;;;;;;;7.90;3.22;;;1.00;99.90;;;;;;4859752;29;20105;-65
2024/01/18 12:09:35;;;;;;;7.97;3.35;;;0.90;99.90;;;;;;4868214;29;20098;-65
2024/01/18 12:12:02;;;;;;;7.47;4.63;;;1.00;99.90;;;;;;4858056;29;20096;-66
2024/01/18 12:14:28;;;;;;;8.57;4.97;;;1.00;99.90;;;;;;4859757;29;20029;-65
2024/01/18 12:16:54;;;;;;;8.20;3.78;;;1.10;99.90;;;;;;4857985;29;20030;-65
2024/01/18 12:19:41;;;;;;;7.78;3.85;;;1.10;99.90;;;;;;4851279;29;20089;-65
2024/01/18 12:22:09;;;;;;;11.55;5.85;;;1.20;99.90;;;;;;4858587;29;20037;-65
2024/01/18 12:24:36;;;;;;;6.70;3.72;;;1.20;99.90;;;;;;4859547;29;20025;-65
2024/01/18 12:27:06;;;;;;;7.65;3.47;;;1.20;99.90;;;;;;4855582;29;20033;-66
2024/01/18 12:29:34;;;;;;;7.93;3.58;;;1.30;99.90;;;;;;4867004;29;20040;-66
2024/01/18 12:32:02;;;;;;;5.72;4.00;;;1.20;99.90;;;;;;4858524;29;20386;-65
2024/01/18 12:34:29;;;;;;;5.90;3.42;;;1.30;99.90;;;;;;4872864;29;20037;-65
2024/01/18 12:36:56;;;;;;;7.28;3.30;;;1.30;99.90;;;;;;4858312;29;20097;-67
2024/01/18 12:39:22;;;;;;;8.25;3.53;;;1.40;99.90;;;;;;4857325;29;20045;-67
2024/01/18 12:41:54;;;;;;;6.22;3.33;;;1.30;99.90;;;;;;4860146;29;20044;-67
2024/01/18 12:44:20;;;;;;;10.10;2.75;;;1.40;99.90;;;;;;4851190;29;20037;-66
2024/01/18 12:46:49;;;;;;;4.63;3.58;;;1.40;99.90;;;;;;4857958;29;20070;-67
2024/01/18 12:49:18;;;;;;;3.15;2.17;;;1.30;99.90;;;;;;4856862;29;20029;-67
2024/01/18 12:51:59;;;;;;;3.53;3.17;;;1.30;99.90;;;;;;4858756;29;20522;-67
2024/01/18 12:54:28;;;;;;;5.03;2.33;;;1.30;99.90;;;;;;4854779;29;20034;-68